createdAt,value
2018-05-18T00:00:58.432Z,35.33
2018-05-18T00:03:25.018Z,36.43
2018-05-18T00:05:52.297Z,35.00
2018-05-18T00:08:18.766Z,46.67
2018-05-18T00:10:45.331Z,47.30
2018-05-18T00:13:11.811Z,42.83
2018-05-18T00:15:38.341Z,42.60
2018-05-18T00:18:04.835Z,43.20
2018-05-18T00:20:31.509Z,44.43
2018-05-18T00:22:57.934Z,42.73
2018-05-18T00:25:24.409Z,43.27
2018-05-18T00:27:50.889Z,41.80
2018-05-18T00:30:18.063Z,46.57
2018-05-18T00:32:44.646Z,47.57
2018-05-18T00:35:11.147Z,40.23
2018-05-18T00:37:37.711Z,43.07
2018-05-18T00:40:04.231Z,43.10
2018-05-18T00:42:30.682Z,43.10
2018-05-18T00:44:57.164Z,41.60
2018-05-18T00:47:23.669Z,45.13
2018-05-18T00:49:50.859Z,41.60
2018-05-18T00:52:17.329Z,47.53
2018-05-18T00:54:43.825Z,42.13
2018-05-18T00:57:10.413Z,50.10
2018-05-18T00:59:36.868Z,52.27
2018-05-18T01:02:03.482Z,46.33
2018-05-18T01:04:30.006Z,48.90
2018-05-18T01:06:56.531Z,44.77
2018-05-18T01:09:23.085Z,42.27
2018-05-18T01:11:49.625Z,49.80
2018-05-18T01:14:16.149Z,43.17
2018-05-18T01:16:42.646Z,46.43
2018-05-18T01:19:09.163Z,45.03
2018-05-18T01:21:35.746Z,44.43
2018-05-18T01:24:02.245Z,44.23
2018-05-18T01:26:28.705Z,49.40
2018-05-18T01:28:55.169Z,46.80
2018-05-18T01:31:21.673Z,45.83
2018-05-18T01:33:48.959Z,44.30
2018-05-18T01:36:15.443Z,45.90
2018-05-18T01:38:41.934Z,46.53
2018-05-18T01:41:09.234Z,43.60
2018-05-18T01:43:35.799Z,46.43
2018-05-18T01:46:02.267Z,46.77
2018-05-18T01:48:29.620Z,48.50
2018-05-18T01:50:56.117Z,43.90
2018-05-18T01:53:22.679Z,54.30
2018-05-18T01:55:49.939Z,55.67
2018-05-18T01:58:16.399Z,54.00
2018-05-18T02:00:42.895Z,56.80
2018-05-18T02:03:09.378Z,58.00
2018-05-18T02:05:35.958Z,56.77
2018-05-18T02:08:02.426Z,52.20
2018-05-18T02:10:28.943Z,55.57
2018-05-18T02:12:56.141Z,58.37
2018-05-18T02:15:22.602Z,55.77
2018-05-18T02:17:49.072Z,60.17
2018-05-18T02:20:16.375Z,58.27
2018-05-18T02:22:42.850Z,57.17
2018-05-18T02:25:10.094Z,52.70
2018-05-18T02:27:37.279Z,56.33
2018-05-18T02:30:03.835Z,56.97
2018-05-18T02:32:30.322Z,59.83
2018-05-18T02:34:57.565Z,54.97
2018-05-18T02:37:24.803Z,55.47
2018-05-18T02:39:51.250Z,54.53
2018-05-18T02:42:17.703Z,63.73
2018-05-18T02:44:44.887Z,58.80
2018-05-18T02:47:11.517Z,65.80
2018-05-18T02:49:37.945Z,64.97
2018-05-18T02:52:04.486Z,67.17
2018-05-18T02:54:30.920Z,66.50
2018-05-18T02:56:57.538Z,79.97
2018-05-18T02:59:23.987Z,84.27
2018-05-18T03:01:50.551Z,92.73
2018-05-18T03:04:17.027Z,104.10
2018-05-18T03:06:43.562Z,117.20
2018-05-18T03:09:10.793Z,91.30
2018-05-18T03:11:37.258Z,102.90
2018-05-18T03:14:03.788Z,128.13
2018-05-18T03:16:30.241Z,92.20
2018-05-18T03:18:56.800Z,90.10
2018-05-18T03:21:23.254Z,138.70
2018-05-18T03:23:49.789Z,109.57
2018-05-18T03:26:16.426Z,111.33
2018-05-18T03:28:42.962Z,115.17
2018-05-18T03:31:09.400Z,89.10
2018-05-18T03:33:36.680Z,74.40
2018-05-18T03:36:03.898Z,84.40
2018-05-18T03:38:30.362Z,106.00
2018-05-18T03:40:56.817Z,269.40
2018-05-18T03:43:23.394Z,206.37
2018-05-18T03:45:49.887Z,185.33
2018-05-18T03:48:16.359Z,226.53
2018-05-18T03:50:42.881Z,116.60
2018-05-18T03:53:09.364Z,148.00
2018-05-18T03:55:36.594Z,119.83
2018-05-18T03:58:03.484Z,98.03
2018-05-18T04:00:29.963Z,113.30
2018-05-18T04:03:08.522Z,90.10
2018-05-18T04:19:10.818Z,93.97
2018-05-18T04:21:37.463Z,69.33
2018-05-18T04:24:03.951Z,55.40
2018-05-18T04:26:31.191Z,86.97
2018-05-18T04:28:58.498Z,66.17
2018-05-18T04:31:24.960Z,55.33
2018-05-18T04:33:51.407Z,53.60
2018-05-18T04:36:18.687Z,54.33
2018-05-18T04:38:45.158Z,58.00
2018-05-18T04:41:11.654Z,53.10
2018-05-18T04:43:38.117Z,102.40
2018-05-18T04:46:04.563Z,179.20
2018-05-18T04:48:31.074Z,72.60
2018-05-18T04:50:57.581Z,199.50
2018-05-18T04:53:23.961Z,123.33
2018-05-18T04:55:50.396Z,49.93
2018-05-18T04:58:16.866Z,47.33
2018-05-18T05:00:44.102Z,63.23
2018-05-18T05:03:10.591Z,51.20
2018-05-18T05:05:37.050Z,40.30
2018-05-18T05:08:03.541Z,155.77
2018-05-18T05:10:29.958Z,74.30
2018-05-18T05:12:57.172Z,110.03
2018-05-18T05:15:23.714Z,86.87
2018-05-18T05:17:50.266Z,42.40
2018-05-18T05:20:16.707Z,47.10
2018-05-18T05:22:43.919Z,42.20
2018-05-18T05:25:10.410Z,40.37
2018-05-18T05:27:36.858Z,35.43
2018-05-18T05:30:03.337Z,40.77
2018-05-18T05:32:29.763Z,39.10
2018-05-18T05:34:56.267Z,34.90
2018-05-18T05:37:22.724Z,32.97
2018-05-18T05:39:49.963Z,34.73
2018-05-18T05:42:16.393Z,42.33
2018-05-18T05:44:42.896Z,35.47
2018-05-18T05:47:09.450Z,33.43
2018-05-18T05:49:35.935Z,33.30
2018-05-18T05:52:03.150Z,36.90
2018-05-18T05:54:29.648Z,33.17
2018-05-18T05:56:56.934Z,32.00
2018-05-18T05:59:23.441Z,35.60
2018-05-18T06:01:50.094Z,33.40
2018-05-18T06:04:16.575Z,33.90
2018-05-18T06:06:43.124Z,34.70
2018-05-18T06:09:09.586Z,35.60
2018-05-18T06:11:36.401Z,28.23
2018-05-18T06:14:03.702Z,33.67
2018-05-18T06:16:30.190Z,37.00
2018-05-18T06:18:57.365Z,29.27
2018-05-18T06:21:23.843Z,30.27
2018-05-18T06:23:50.309Z,26.10
2018-05-18T06:26:17.501Z,24.73
2018-05-18T06:28:43.937Z,27.40
2018-05-18T06:31:10.477Z,29.47
2018-05-18T06:33:36.958Z,27.10
2018-05-18T06:36:03.437Z,26.10
2018-05-18T06:38:37.085Z,21.70
2018-05-18T06:43:59.963Z,26.87
2018-05-18T06:46:28.388Z,23.57
2018-05-18T06:48:54.878Z,25.70
2018-05-18T06:51:22.294Z,29.87
2018-05-18T06:53:54.040Z,30.87
2018-05-18T06:56:21.430Z,28.53
2018-05-18T06:58:48.122Z,24.37
2018-05-18T07:01:15.255Z,26.93
2018-05-18T07:03:41.995Z,22.40
2018-05-18T07:06:11.822Z,21.70
2018-05-18T07:08:38.328Z,24.47
2018-05-18T07:11:06.542Z,23.53
2018-05-18T07:13:33.185Z,24.60
2018-05-18T07:15:59.747Z,28.37
2018-05-18T07:18:26.257Z,27.13
2018-05-18T07:20:52.762Z,22.27
2018-05-18T07:23:19.425Z,26.73
2018-05-18T07:25:45.977Z,27.27
2018-05-18T07:28:12.525Z,31.63
2018-05-18T07:30:46.663Z,23.73
2018-05-18T07:33:14.279Z,21.40
2018-05-18T07:35:40.734Z,25.33
2018-05-18T07:38:07.416Z,22.17
2018-05-18T07:40:33.874Z,21.80
2018-05-18T07:43:00.386Z,20.77
2018-05-18T07:45:26.890Z,20.83
2018-05-18T07:47:53.434Z,22.40
2018-05-18T07:50:20.806Z,24.10
2018-05-18T07:52:47.354Z,21.17
2018-05-18T07:55:13.917Z,25.27
2018-05-18T07:57:40.441Z,23.50
2018-05-18T08:00:07.203Z,20.37
2018-05-18T08:02:33.709Z,20.40
2018-05-18T08:05:00.251Z,25.57
2018-05-18T08:07:26.958Z,18.50
2018-05-18T08:09:53.522Z,18.93
2018-05-18T08:12:20.052Z,20.40
2018-05-18T08:14:46.818Z,19.93
2018-05-18T08:17:13.373Z,20.90
2018-05-18T08:19:40.082Z,19.17
2018-05-18T08:31:07.425Z,25.27
2018-05-18T08:33:34.010Z,18.77
2018-05-18T08:36:01.571Z,19.30
2018-05-18T08:38:28.840Z,16.63
2018-05-18T08:40:55.409Z,19.60
2018-05-18T08:43:21.825Z,16.60
2018-05-18T08:45:48.343Z,17.13
2018-05-18T08:48:14.706Z,18.20
2018-05-18T08:50:41.168Z,18.90
2018-05-18T08:53:07.633Z,15.30
2018-05-18T08:55:34.025Z,15.67
2018-05-18T08:58:00.460Z,17.47
2018-05-18T09:00:26.903Z,14.63
2018-05-18T09:02:54.084Z,19.70
2018-05-18T09:05:20.496Z,16.67
2018-05-18T09:07:47.753Z,19.27
2018-05-18T09:10:15.065Z,19.10
2018-05-18T09:12:41.518Z,16.60
2018-05-18T09:15:08.733Z,14.43
2018-05-18T09:17:36.098Z,17.00
2018-05-18T09:20:02.705Z,17.13
2018-05-18T09:22:29.197Z,17.17
2018-05-18T09:24:56.388Z,20.70
2018-05-18T09:27:22.841Z,16.50
2018-05-18T09:29:49.316Z,17.87
2018-05-18T09:32:16.657Z,16.17
2018-05-18T09:34:43.950Z,16.43
2018-05-18T09:37:10.383Z,17.30
2018-05-18T09:39:36.925Z,17.67
2018-05-18T09:42:03.367Z,21.60
2018-05-18T09:47:25.670Z,16.80
2018-05-18T09:49:52.953Z,16.10
2018-05-18T09:52:19.511Z,21.27
2018-05-18T09:54:46.240Z,20.83
2018-05-18T09:57:12.829Z,17.33
2018-05-18T09:59:39.317Z,18.70
2018-05-18T10:02:05.810Z,20.90
2018-05-18T10:04:33.090Z,18.77
2018-05-18T10:06:59.702Z,16.63
2018-05-18T10:09:26.915Z,17.23
2018-05-18T10:11:53.431Z,15.70
2018-05-18T10:14:19.929Z,18.03
2018-05-18T10:16:47.316Z,16.47
2018-05-18T10:19:13.812Z,15.60
2018-05-18T10:21:43.219Z,14.70
2018-05-18T10:24:10.460Z,15.33
2018-05-18T10:26:37.702Z,18.30
2018-05-18T10:29:05.028Z,12.77
2018-05-18T10:31:31.518Z,15.63
2018-05-18T10:33:58.784Z,15.13
2018-05-18T10:36:25.365Z,15.20
2018-05-18T10:38:51.998Z,16.47
2018-05-18T10:41:18.607Z,15.73
2018-05-18T10:43:45.368Z,14.70
2018-05-18T10:46:11.858Z,14.73
2018-05-18T10:48:39.065Z,14.50
2018-05-18T10:51:05.556Z,14.00
2018-05-18T10:53:32.036Z,14.13
2018-05-18T10:55:58.528Z,19.30
2018-05-18T10:58:25.074Z,15.80
2018-05-18T11:00:51.718Z,13.13
2018-05-18T11:03:18.434Z,16.10
2018-05-18T11:05:45.023Z,18.53
2018-05-18T11:08:11.600Z,15.33
2018-05-18T11:10:38.115Z,15.67
2018-05-18T11:13:05.314Z,16.10
2018-05-18T11:15:31.870Z,17.53
2018-05-18T11:17:58.321Z,12.67
2018-05-18T11:20:29.750Z,14.40
2018-05-18T11:22:56.362Z,15.57
2018-05-18T11:25:23.033Z,12.83
2018-05-18T11:27:49.607Z,16.73
2018-05-18T11:30:16.150Z,17.00
2018-05-18T11:32:42.701Z,11.03
2018-05-18T11:35:09.310Z,14.27
2018-05-18T11:37:36.615Z,16.90
2018-05-18T11:40:03.110Z,15.00
2018-05-18T11:42:29.715Z,14.83
2018-05-18T11:44:56.173Z,15.03
2018-05-18T11:47:22.659Z,14.00
2018-05-18T11:49:49.196Z,13.63
2018-05-18T11:52:15.654Z,11.00
2018-05-18T11:54:42.210Z,16.57
2018-05-18T11:57:08.599Z,13.57
2018-05-18T11:59:35.194Z,15.27
2018-05-18T12:02:01.773Z,15.90
2018-05-18T12:04:28.676Z,15.30
2018-05-18T12:06:55.235Z,12.60
2018-05-18T12:09:21.788Z,13.40
2018-05-18T12:11:48.356Z,15.47
2018-05-18T12:14:15.550Z,13.47
2018-05-18T12:16:42.054Z,13.47
2018-05-18T12:19:10.078Z,14.30
2018-05-18T12:21:37.063Z,15.20
2018-05-18T12:24:03.581Z,9.90
2018-05-18T12:26:30.798Z,14.00
2018-05-18T12:28:57.287Z,11.23
2018-05-18T12:31:24.619Z,12.63
2018-05-18T12:33:52.001Z,10.90
2018-05-18T12:36:19.335Z,15.23
2018-05-18T12:38:46.539Z,15.23
2018-05-18T12:41:13.026Z,13.37
2018-05-18T12:43:40.436Z,13.03
2018-05-18T12:46:07.057Z,14.80
2018-05-18T12:48:33.536Z,11.73
2018-05-18T12:51:00.142Z,12.07
2018-05-18T12:53:26.657Z,14.40
2018-05-18T12:55:53.200Z,12.07
2018-05-18T12:58:19.655Z,10.80
2018-05-18T13:00:46.157Z,13.50
2018-05-18T13:03:12.744Z,13.03
2018-05-18T13:05:39.459Z,13.07
2018-05-18T13:08:05.937Z,15.90
2018-05-18T13:10:33.232Z,14.20
2018-05-18T13:12:59.776Z,15.37
2018-05-18T13:15:26.270Z,12.80
2018-05-18T13:17:53.657Z,15.37
2018-05-18T13:20:20.131Z,12.50
2018-05-18T13:22:46.663Z,15.60
2018-05-18T13:25:13.130Z,12.13
2018-05-18T13:27:40.482Z,12.67
2018-05-18T13:30:07.735Z,11.73
2018-05-18T13:32:34.919Z,14.20
2018-05-18T13:35:01.378Z,10.60
2018-05-18T13:37:27.867Z,16.83
2018-05-18T13:39:54.439Z,11.20
2018-05-18T13:42:20.925Z,12.60
2018-05-18T13:44:48.285Z,10.60
2018-05-18T13:47:15.544Z,11.40
2018-05-18T13:49:42.056Z,11.93
2018-05-18T13:52:09.322Z,10.70
2018-05-18T13:54:36.679Z,12.97
2018-05-18T13:57:03.710Z,15.43
2018-05-18T13:59:30.215Z,13.40
2018-05-18T14:01:56.667Z,11.43
2018-05-18T14:04:23.961Z,10.67
2018-05-18T14:06:50.497Z,13.37
2018-05-18T14:09:16.982Z,11.47
2018-05-18T14:11:43.474Z,9.50
2018-05-18T14:14:10.052Z,12.10
2018-05-18T14:16:36.549Z,12.20
2018-05-18T14:19:03.018Z,9.77
2018-05-18T14:21:29.578Z,12.30
2018-05-18T14:23:56.801Z,14.53
2018-05-18T14:26:23.379Z,10.00
2018-05-18T14:28:49.787Z,12.30
2018-05-18T14:31:16.273Z,9.40
2018-05-18T14:33:42.721Z,9.50
2018-05-18T14:36:09.235Z,10.73
2018-05-18T14:38:35.676Z,10.77
2018-05-18T14:41:02.231Z,12.60
2018-05-18T14:43:28.693Z,12.73
2018-05-18T14:45:55.178Z,12.17
2018-05-18T14:48:21.713Z,18.23
2018-05-18T14:50:48.170Z,13.40
2018-05-18T14:53:14.797Z,10.80
2018-05-18T14:55:41.331Z,12.40
2018-05-18T14:58:07.997Z,12.40
2018-05-18T15:00:34.505Z,13.20
2018-05-18T15:03:01.056Z,11.00
2018-05-18T15:05:27.510Z,14.77
2018-05-18T15:07:54.773Z,12.97
2018-05-18T15:10:22.098Z,11.60
2018-05-18T15:12:48.571Z,11.93
2018-05-18T15:15:15.047Z,10.47
2018-05-18T15:17:41.551Z,11.33
2018-05-18T15:20:07.996Z,14.20
2018-05-18T15:22:34.485Z,13.40
2018-05-18T15:25:00.991Z,14.43
2018-05-18T15:27:27.561Z,12.77
2018-05-18T15:29:54.879Z,11.93
2018-05-18T15:32:21.478Z,11.03
2018-05-18T15:34:48.016Z,11.87
2018-05-18T15:37:14.524Z,14.77
2018-05-18T15:39:41.100Z,13.13
2018-05-18T15:42:07.539Z,13.93
2018-05-18T15:44:35.318Z,12.67
2018-05-18T15:47:01.872Z,14.50
2018-05-18T15:49:28.550Z,11.70
2018-05-18T15:51:55.655Z,14.23
2018-05-18T15:54:22.129Z,13.53
2018-05-18T15:56:48.698Z,13.97
2018-05-18T15:59:15.292Z,15.87
2018-05-18T16:01:42.556Z,12.70
2018-05-18T16:04:09.169Z,12.07
2018-05-18T16:06:36.390Z,14.67
2018-05-18T16:09:02.957Z,15.07
2018-05-18T16:11:30.712Z,12.70
2018-05-18T16:13:57.267Z,14.17
2018-05-18T16:16:24.465Z,16.57
2018-05-18T16:18:50.968Z,14.20
2018-05-18T16:21:17.418Z,14.17
2018-05-18T16:23:43.912Z,17.13
2018-05-18T16:26:11.320Z,14.80
2018-05-18T16:28:37.793Z,15.70
2018-05-18T16:31:04.293Z,16.37
2018-05-18T16:33:30.880Z,11.83
2018-05-18T16:35:58.056Z,12.70
2018-05-18T16:38:24.534Z,13.00
2018-05-18T16:40:51.030Z,12.17
2018-05-18T16:43:17.491Z,11.70
2018-05-18T16:45:43.975Z,13.50
2018-05-18T16:48:10.415Z,13.70
2018-05-18T16:50:37.131Z,14.50
2018-05-18T16:53:04.411Z,12.50
2018-05-18T16:55:30.919Z,10.40
2018-05-18T16:57:58.180Z,15.07
2018-05-18T17:00:24.652Z,14.30
2018-05-18T17:02:51.110Z,13.83
2018-05-18T17:05:17.719Z,11.80
2018-05-18T17:07:52.198Z,13.23
2018-05-18T17:10:19.474Z,13.10
2018-05-18T17:12:46.731Z,12.93
2018-05-18T17:15:13.300Z,13.93
2018-05-18T17:17:39.778Z,14.27
2018-05-18T17:20:07.026Z,10.60
2018-05-18T17:22:34.270Z,15.23
2018-05-18T17:25:01.648Z,12.80
2018-05-18T17:27:28.129Z,12.77
2018-05-18T17:29:54.639Z,12.97
2018-05-18T17:32:21.166Z,14.80
2018-05-18T17:37:43.262Z,17.47
2018-05-18T17:40:09.766Z,10.57
2018-05-18T17:42:40.983Z,15.20
2018-05-18T17:45:07.702Z,12.77
2018-05-18T17:47:34.954Z,10.43
2018-05-18T17:50:02.636Z,13.93
2018-05-18T17:52:29.123Z,16.23
2018-05-18T17:54:55.750Z,15.03
2018-05-18T17:57:22.208Z,11.07
2018-05-18T17:59:48.681Z,14.37
2018-05-18T18:02:15.238Z,13.87
2018-05-18T18:04:41.667Z,11.50
2018-05-18T18:07:08.145Z,12.57
2018-05-18T18:09:34.625Z,12.13
2018-05-18T18:12:01.130Z,11.50
2018-05-18T18:14:28.431Z,16.03
2018-05-18T18:16:54.926Z,13.60
2018-05-18T18:19:22.123Z,12.20
2018-05-18T18:21:48.700Z,16.30
2018-05-18T18:24:15.892Z,17.37
2018-05-18T18:26:42.471Z,17.93
2018-05-18T18:29:08.981Z,16.07
2018-05-18T18:31:35.475Z,16.10
2018-05-18T18:34:01.985Z,13.97
2018-05-18T18:36:29.178Z,13.90
2018-05-18T18:38:55.687Z,14.10
2018-05-18T18:41:23.583Z,12.57
2018-05-18T18:43:50.365Z,19.30
2018-05-18T18:46:16.913Z,15.03
2018-05-18T18:48:44.231Z,14.20
2018-05-18T18:51:10.701Z,14.00
2018-05-18T18:53:37.234Z,19.63
2018-05-18T18:56:03.649Z,13.90
2018-05-18T18:58:30.210Z,17.20
2018-05-18T19:00:56.697Z,18.03
2018-05-18T19:03:23.241Z,17.20
2018-05-18T19:05:49.775Z,15.33
2018-05-18T19:08:16.308Z,14.67
2018-05-18T19:10:42.766Z,17.87
2018-05-18T19:13:09.216Z,16.77
2018-05-18T19:15:36.503Z,23.20
2018-05-18T19:18:03.105Z,15.23
2018-05-18T19:20:30.381Z,16.53
2018-05-18T19:22:56.865Z,17.77
2018-05-18T19:25:23.366Z,16.33
2018-05-18T19:27:49.819Z,18.20
2018-05-18T19:30:16.988Z,17.83
2018-05-18T19:32:43.489Z,17.60
2018-05-18T19:35:10.016Z,15.83
2018-05-18T19:37:36.596Z,19.33
2018-05-18T19:40:03.065Z,16.47
2018-05-18T19:42:29.638Z,17.70
2018-05-18T19:44:56.094Z,17.33
2018-05-18T19:47:22.791Z,19.97
2018-05-18T19:49:49.260Z,15.90
2018-05-18T19:52:15.759Z,17.43
2018-05-18T19:54:42.272Z,18.90
2018-05-18T19:57:09.510Z,17.00
2018-05-18T19:59:36.829Z,20.17
2018-05-18T20:02:03.439Z,24.97
2018-05-18T20:04:29.906Z,22.60
2018-05-18T20:06:56.365Z,17.83
2018-05-18T20:09:23.699Z,16.37
2018-05-18T20:11:50.245Z,16.37
2018-05-18T20:14:16.824Z,18.23
2018-05-18T20:16:43.391Z,20.33
2018-05-18T20:19:09.902Z,18.90
2018-05-18T20:21:36.458Z,21.33
2018-05-18T20:24:03.002Z,19.70
2018-05-18T20:26:29.550Z,16.40
2018-05-18T20:28:56.101Z,22.73
2018-05-18T20:31:22.606Z,20.40
2018-05-18T20:33:49.189Z,22.20
2018-05-18T20:36:15.697Z,21.50
2018-05-18T20:38:42.201Z,23.93
2018-05-18T20:41:08.719Z,23.03
2018-05-18T20:43:35.285Z,20.53
2018-05-18T20:46:01.779Z,22.63
2018-05-18T20:48:28.414Z,21.60
2018-05-18T20:50:54.909Z,20.03
2018-05-18T20:53:21.501Z,21.70
2018-05-18T20:55:48.352Z,33.80
2018-05-18T20:58:15.462Z,21.77
2018-05-18T21:00:42.836Z,20.87
2018-05-18T21:03:09.555Z,22.13
2018-05-18T21:05:37.534Z,19.20
2018-05-18T21:08:04.146Z,21.93
2018-05-18T21:10:30.701Z,20.53
2018-05-18T21:12:57.969Z,22.90
2018-05-18T21:15:24.573Z,24.30
2018-05-18T21:17:51.060Z,23.83
2018-05-18T21:20:17.627Z,24.37
2018-05-18T21:22:44.144Z,21.83
2018-05-18T21:25:10.740Z,24.60
2018-05-18T21:27:37.409Z,22.50
2018-05-18T21:30:03.955Z,23.67
2018-05-18T21:32:30.536Z,27.03
2018-05-18T21:34:57.744Z,23.10
2018-05-18T21:37:24.219Z,26.03
2018-05-18T21:39:51.462Z,27.30
2018-05-18T21:42:24.817Z,23.43
2018-05-18T21:44:51.388Z,27.23
2018-05-18T21:47:17.930Z,21.17
2018-05-18T21:49:52.107Z,26.73
2018-05-18T21:52:18.681Z,23.50
2018-05-18T21:54:46.017Z,26.73
2018-05-18T21:57:12.517Z,25.90
2018-05-18T21:59:39.001Z,23.80
2018-05-18T22:02:05.513Z,23.23
2018-05-18T22:04:31.990Z,25.47
2018-05-18T22:06:58.510Z,28.80
2018-05-18T22:09:25.058Z,21.57
2018-05-18T22:11:52.368Z,23.90
2018-05-18T22:14:18.934Z,23.67
2018-05-18T22:16:45.546Z,21.07
2018-05-18T22:19:12.144Z,21.70
2018-05-18T22:21:38.618Z,22.00
2018-05-18T22:24:05.134Z,25.07
2018-05-18T22:26:31.590Z,24.03
2018-05-18T22:28:58.045Z,24.43
2018-05-18T22:31:25.276Z,24.63
2018-05-18T22:33:51.832Z,25.77
2018-05-18T22:36:19.076Z,25.90
2018-05-18T22:38:45.551Z,30.10
2018-05-18T22:41:12.153Z,21.77
2018-05-18T22:43:39.384Z,23.60
2018-05-18T22:46:05.908Z,23.57
2018-05-18T22:48:32.420Z,25.10
2018-05-18T22:50:58.928Z,25.50
2018-05-18T22:53:25.402Z,23.80
2018-05-18T22:55:51.985Z,23.43
2018-05-18T22:58:19.193Z,23.77
2018-05-18T23:00:45.787Z,29.00
2018-05-18T23:03:12.267Z,23.03
2018-05-18T23:05:38.737Z,22.20
2018-05-18T23:08:06.116Z,24.57
2018-05-18T23:10:32.596Z,24.23
2018-05-18T23:12:59.149Z,28.93
2018-05-18T23:15:25.670Z,26.33
2018-05-18T23:17:52.167Z,28.40
2018-05-18T23:20:18.671Z,26.13
2018-05-18T23:22:46.110Z,22.60
2018-05-18T23:25:12.591Z,23.20
2018-05-18T23:27:39.170Z,31.43
2018-05-18T23:30:05.641Z,27.37
2018-05-18T23:32:32.214Z,26.00
2018-05-18T23:34:58.736Z,26.80
2018-05-18T23:37:25.173Z,24.83
2018-05-18T23:39:51.655Z,26.20
2018-05-18T23:42:18.884Z,30.00
2018-05-18T23:44:45.387Z,23.07
2018-05-18T23:47:11.856Z,27.63
2018-05-18T23:49:38.418Z,29.10
2018-05-18T23:52:05.957Z,27.73
2018-05-18T23:54:32.451Z,26.50
2018-05-18T23:56:58.978Z,26.20
2018-05-18T23:59:25.430Z,23.70
